createdAt,value
2018-07-01T00:01:58.581Z,91.30
2018-07-01T00:04:27.680Z,92.70
2018-07-01T00:06:56.876Z,94.70
2018-07-01T00:09:26.001Z,96.50
2018-07-01T00:11:55.144Z,97.20
2018-07-01T00:14:24.327Z,99.60
2018-07-01T00:16:53.477Z,99.90
2018-07-01T00:19:22.565Z,99.90
2018-07-01T00:21:51.690Z,99.90
2018-07-01T00:24:21.884Z,99.90
2018-07-01T00:26:51.083Z,99.90
2018-07-01T00:29:20.153Z,99.90
2018-07-01T00:31:49.288Z,99.90
2018-07-01T00:34:40.260Z,99.90
2018-07-01T00:37:09.376Z,99.90
2018-07-01T00:39:38.496Z,99.90
2018-07-01T00:42:07.744Z,99.90
2018-07-01T00:44:36.856Z,99.90
2018-07-01T00:47:06.072Z,99.90
2018-07-01T00:49:35.453Z,99.90
2018-07-01T00:52:04.854Z,99.90
2018-07-01T00:55:01.549Z,99.90
2018-07-01T00:57:31.052Z,99.90
2018-07-01T01:00:00.405Z,99.90
2018-07-01T01:04:58.809Z,99.90
2018-07-01T01:07:28.203Z,99.90
2018-07-01T01:09:57.864Z,99.90
2018-07-01T01:12:27.208Z,99.90
2018-07-01T01:17:25.589Z,99.90
2018-07-01T01:19:54.966Z,99.90
2018-07-01T01:22:24.375Z,99.90
2018-07-01T01:24:53.653Z,99.90
2018-07-01T01:27:23.089Z,99.90
2018-07-01T01:29:52.429Z,99.90
2018-07-01T01:32:21.851Z,99.90
2018-07-01T01:34:52.267Z,99.90
2018-07-01T01:37:21.605Z,99.90
2018-07-01T01:39:51.041Z,99.90
2018-07-01T01:42:30.489Z,99.90
2018-07-01T01:45:05.121Z,99.90
2018-07-01T01:47:38.717Z,99.90
2018-07-01T01:50:44.382Z,99.90
2018-07-01T01:53:28.621Z,99.90
2018-07-01T01:56:10.141Z,99.90
2018-07-01T01:58:44.408Z,99.90
2018-07-01T02:03:58.760Z,99.90
2018-07-01T02:06:31.242Z,99.90
2018-07-01T02:09:04.757Z,99.90
2018-07-01T02:11:37.297Z,99.90
2018-07-01T02:16:50.422Z,99.90
2018-07-01T02:19:19.526Z,99.90
2018-07-01T02:21:48.726Z,99.90
2018-07-01T02:24:38.997Z,99.90
2018-07-01T02:27:08.100Z,99.90
2018-07-01T02:29:37.292Z,99.90
2018-07-01T02:32:06.529Z,99.90
2018-07-01T02:34:44.491Z,99.90
2018-07-01T02:37:13.858Z,99.90
2018-07-01T02:39:43.203Z,99.90
2018-07-01T02:42:12.641Z,99.90
2018-07-01T02:44:49.256Z,99.90
2018-07-01T02:47:18.589Z,99.90
2018-07-01T02:49:48.010Z,99.90
2018-07-01T02:52:18.245Z,99.90
2018-07-01T02:54:55.962Z,99.90
2018-07-01T02:57:25.360Z,99.90
2018-07-01T02:59:54.771Z,99.90
2018-07-01T03:02:24.151Z,99.90
2018-07-01T03:04:53.460Z,99.90
2018-07-01T03:07:22.881Z,99.90
2018-07-01T03:09:52.244Z,99.90
2018-07-01T03:12:21.653Z,99.90
2018-07-01T03:15:05.380Z,99.90
2018-07-01T03:17:34.856Z,99.90
2018-07-01T03:20:04.236Z,99.90
2018-07-01T03:22:33.598Z,99.90
2018-07-01T03:27:38.635Z,99.90
2018-07-01T03:30:07.800Z,99.90
2018-07-01T03:32:38.148Z,99.90
2018-07-01T03:35:07.560Z,99.90
2018-07-01T03:37:36.860Z,99.90
2018-07-01T03:40:06.469Z,99.90
2018-07-01T03:42:35.793Z,99.90
2018-07-01T03:45:05.147Z,99.90
2018-07-01T03:47:34.522Z,99.90
2018-07-01T03:50:03.915Z,99.90
2018-07-01T03:53:07.605Z,99.90
2018-07-01T03:55:36.994Z,99.90
2018-07-01T03:58:06.489Z,99.90
2018-07-01T04:00:35.942Z,99.90
2018-07-01T04:03:09.509Z,99.90
2018-07-01T04:08:07.976Z,99.90
2018-07-01T04:10:37.321Z,99.90
2018-07-01T04:13:10.437Z,99.90
2018-07-01T04:15:39.777Z,99.90
2018-07-01T04:18:09.109Z,99.90
2018-07-01T04:20:38.456Z,99.90
2018-07-01T04:23:15.672Z,99.90
2018-07-01T04:25:45.042Z,99.90
2018-07-01T04:28:14.360Z,99.90
2018-07-01T04:30:43.684Z,99.90
2018-07-01T04:33:14.149Z,99.90
2018-07-01T04:35:43.566Z,99.90
2018-07-01T04:38:12.900Z,99.90
2018-07-01T04:40:42.360Z,99.90
2018-07-01T04:43:21.157Z,99.90
2018-07-01T04:45:50.649Z,99.90
2018-07-01T04:48:20.046Z,99.90
2018-07-01T04:50:49.404Z,99.90
2018-07-01T04:53:18.793Z,99.90
2018-07-01T04:55:48.261Z,99.90
2018-07-01T04:58:17.662Z,99.90
2018-07-01T05:00:47.009Z,99.90
2018-07-01T05:03:17.368Z,99.90
2018-07-01T05:05:46.690Z,99.90
2018-07-01T05:08:16.102Z,99.90
2018-07-01T05:10:45.646Z,99.90
2018-07-01T05:13:16.097Z,99.90
2018-07-01T05:15:45.497Z,99.90
2018-07-01T05:18:14.846Z,99.90
2018-07-01T05:20:44.227Z,99.90
2018-07-01T05:23:17.542Z,99.90
2018-07-01T05:25:47.031Z,99.90
2018-07-01T05:28:16.405Z,99.90
2018-07-01T05:30:45.733Z,99.90
2018-07-01T05:33:15.193Z,99.90
2018-07-01T05:35:44.564Z,99.90
2018-07-01T05:38:13.927Z,99.90
2018-07-01T05:40:43.257Z,99.90
2018-07-01T05:43:14.781Z,99.90
2018-07-01T05:45:44.156Z,99.90
2018-07-01T05:48:14.300Z,99.90
2018-07-01T05:50:43.988Z,99.90
2018-07-01T05:53:13.433Z,99.90
2018-07-01T05:55:42.844Z,99.90
2018-07-01T05:58:12.226Z,99.90
2018-07-01T06:00:41.638Z,99.90
2018-07-01T06:03:14.272Z,99.90
2018-07-01T06:05:43.626Z,99.90
2018-07-01T06:08:12.977Z,99.90
2018-07-01T06:10:42.381Z,99.90
2018-07-01T06:13:19.216Z,99.90
2018-07-01T06:15:48.554Z,99.90
2018-07-01T06:18:17.948Z,99.90
2018-07-01T06:20:47.333Z,99.90
2018-07-01T06:23:26.116Z,99.90
2018-07-01T06:25:55.530Z,99.90
2018-07-01T06:28:24.904Z,99.90
2018-07-01T06:30:54.313Z,99.90
2018-07-01T06:33:24.764Z,99.90
2018-07-01T06:35:54.133Z,99.90
2018-07-01T06:38:23.496Z,99.90
2018-07-01T06:40:52.885Z,99.90
2018-07-01T06:43:22.339Z,99.90
2018-07-01T06:45:51.658Z,99.90
2018-07-01T06:48:21.001Z,99.90
2018-07-01T06:50:50.345Z,99.90
2018-07-01T06:53:49.016Z,99.90
2018-07-01T06:56:18.469Z,98.80
2018-07-01T06:58:47.745Z,98.70
2018-07-01T07:01:17.268Z,96.40
2018-07-01T07:03:46.782Z,94.90
2018-07-01T07:06:16.170Z,95.20
2018-07-01T07:08:45.613Z,94.50
2018-07-01T07:11:14.961Z,94.20
2018-07-01T07:16:17.732Z,94.00
2018-07-01T07:18:47.080Z,92.70
2018-07-01T07:21:16.444Z,93.10
2018-07-01T07:23:45.865Z,92.70
2018-07-01T07:26:15.254Z,91.70
2018-07-01T07:28:44.621Z,90.70
2018-07-01T07:31:13.971Z,91.00
2018-07-01T07:33:53.389Z,90.20
2018-07-01T07:36:22.822Z,90.20
2018-07-01T07:38:52.254Z,86.10
2018-07-01T07:41:21.689Z,86.90
2018-07-01T07:43:51.186Z,85.40
2018-07-01T07:46:20.530Z,85.40
2018-07-01T07:48:49.885Z,80.40
2018-07-01T07:51:19.233Z,80.80
2018-07-01T07:53:50.633Z,71.80
2018-07-01T07:56:20.005Z,68.10
2018-07-01T07:58:49.377Z,64.50
2018-07-01T08:01:25.418Z,61.60
2018-07-01T08:03:59.593Z,62.40
2018-07-01T08:06:28.937Z,59.80
2018-07-01T08:08:58.353Z,60.70
2018-07-01T08:11:27.720Z,59.60
2018-07-01T08:14:05.636Z,58.40
2018-07-01T08:16:35.065Z,58.90
2018-07-01T08:19:04.448Z,57.20
2018-07-01T08:21:34.186Z,57.50
2018-07-01T08:24:33.600Z,57.90
2018-07-01T08:27:02.974Z,56.30
2018-07-01T08:29:32.333Z,55.40
2018-07-01T08:32:01.678Z,56.30
2018-07-01T08:37:07.434Z,55.40
2018-07-01T08:39:36.856Z,56.90
2018-07-01T08:42:39.104Z,56.80
2018-07-01T08:45:09.366Z,56.60
2018-07-01T08:47:38.785Z,55.90
2018-07-01T08:50:08.788Z,55.40
2018-07-01T08:52:39.357Z,55.10
2018-07-01T08:55:08.765Z,54.90
2018-07-01T08:57:38.174Z,54.70
2018-07-01T09:00:08.402Z,54.10
2018-07-01T09:02:37.873Z,53.70
2018-07-01T09:05:07.321Z,54.30
2018-07-01T09:07:36.718Z,54.00
2018-07-01T09:10:09.109Z,53.80
2018-07-01T09:12:46.512Z,51.90
2018-07-01T09:15:15.972Z,51.40
2018-07-01T09:17:45.289Z,53.70
2018-07-01T09:20:14.674Z,53.80
2018-07-01T09:22:45.057Z,53.60
2018-07-01T09:25:14.388Z,51.50
2018-07-01T09:27:43.858Z,52.20
2018-07-01T09:30:13.230Z,53.40
2018-07-01T09:33:30.213Z,51.20
2018-07-01T09:35:59.639Z,49.70
2018-07-01T09:38:28.949Z,50.70
2018-07-01T09:40:58.344Z,51.20
2018-07-01T09:43:27.832Z,50.40
2018-07-01T09:45:57.177Z,50.80
2018-07-01T09:48:26.729Z,48.30
2018-07-01T09:50:56.069Z,47.80
2018-07-01T09:55:54.890Z,48.70
2018-07-01T09:58:24.262Z,48.60
2018-07-01T10:00:53.728Z,46.50
2018-07-01T10:03:25.326Z,47.00
2018-07-01T10:05:54.765Z,48.40
2018-07-01T10:08:24.137Z,46.90
2018-07-01T10:10:53.567Z,45.30
2018-07-01T10:13:23.028Z,45.80
2018-07-01T10:15:52.376Z,47.50
2018-07-01T10:18:22.063Z,47.80
2018-07-01T10:20:51.536Z,47.10
2018-07-01T10:23:20.960Z,45.50
2018-07-01T10:25:50.335Z,45.60
2018-07-01T10:28:19.674Z,45.00
2018-07-01T10:30:49.095Z,45.40
2018-07-01T10:33:18.596Z,44.40
2018-07-01T10:35:48.039Z,44.80
2018-07-01T10:38:17.442Z,43.20
2018-07-01T10:40:46.882Z,42.40
2018-07-01T10:43:16.844Z,42.60
2018-07-01T10:45:46.812Z,42.90
2018-07-01T10:48:16.413Z,42.30
2018-07-01T10:50:45.821Z,41.40
2018-07-01T10:53:16.350Z,42.40
2018-07-01T10:55:45.801Z,41.00
2018-07-01T10:58:15.257Z,42.90
2018-07-01T11:00:44.621Z,39.80
2018-07-01T11:03:16.077Z,39.80
2018-07-01T11:05:45.511Z,40.00
2018-07-01T11:10:43.890Z,40.60
2018-07-01T11:13:27.158Z,40.00
2018-07-01T11:15:56.573Z,40.60
2018-07-01T11:18:26.018Z,38.90
2018-07-01T11:20:55.381Z,37.70
2018-07-01T11:23:32.158Z,38.00
2018-07-01T11:26:01.707Z,36.60
2018-07-01T11:28:31.009Z,37.10
2018-07-01T11:33:44.606Z,37.30
2018-07-01T11:36:14.046Z,37.20
2018-07-01T11:38:44.282Z,36.40
2018-07-01T11:41:13.657Z,36.30
2018-07-01T11:43:59.620Z,37.30
2018-07-01T11:46:29.052Z,38.80
2018-07-01T11:51:27.489Z,58.30
2018-07-01T11:56:26.914Z,34.40
2018-07-01T11:58:56.259Z,35.20
2018-07-01T12:01:25.603Z,34.30
2018-07-01T12:04:16.095Z,36.20
2018-07-01T12:06:45.592Z,34.20
2018-07-01T12:11:44.036Z,32.10
2018-07-01T12:14:16.713Z,33.70
2018-07-01T12:16:46.072Z,32.20
2018-07-01T12:19:15.374Z,31.60
2018-07-01T12:21:44.719Z,33.70
2018-07-01T12:24:23.250Z,33.10
2018-07-01T12:26:52.693Z,33.90
2018-07-01T12:29:22.140Z,32.70
2018-07-01T12:31:51.553Z,33.30
2018-07-01T12:34:24.204Z,33.80
2018-07-01T12:36:53.681Z,32.90
2018-07-01T12:39:23.073Z,32.10
2018-07-01T12:41:52.533Z,33.00
2018-07-01T12:44:22.057Z,34.10
2018-07-01T12:46:51.405Z,32.10
2018-07-01T12:49:20.808Z,31.70
2018-07-01T12:51:50.169Z,32.50
2018-07-01T12:54:20.585Z,32.40
2018-07-01T12:56:50.122Z,29.40
2018-07-01T12:59:19.565Z,30.00
2018-07-01T13:01:48.989Z,29.30
2018-07-01T13:04:26.205Z,29.60
2018-07-01T13:06:55.613Z,29.70
2018-07-01T13:09:24.917Z,29.60
2018-07-01T13:11:54.305Z,29.70
2018-07-01T13:14:23.708Z,31.30
2018-07-01T13:16:53.089Z,31.30
2018-07-01T13:19:22.512Z,30.60
2018-07-01T13:21:51.832Z,29.90
2018-07-01T13:24:22.249Z,29.30
2018-07-01T13:26:51.737Z,31.60
2018-07-01T13:29:21.066Z,29.70
2018-07-01T13:31:50.453Z,30.60
2018-07-01T13:34:20.797Z,28.60
2018-07-01T13:36:50.189Z,29.40
2018-07-01T13:39:19.587Z,30.10
2018-07-01T13:41:48.922Z,29.00
2018-07-01T13:44:32.260Z,29.60
2018-07-01T13:47:01.710Z,28.80
2018-07-01T13:49:31.081Z,28.80
2018-07-01T13:52:00.486Z,28.00
2018-07-01T13:54:40.909Z,29.20
2018-07-01T13:57:10.386Z,27.90
2018-07-01T13:59:39.717Z,27.60
2018-07-01T14:02:09.122Z,27.50
2018-07-01T14:04:48.137Z,28.80
2018-07-01T14:07:17.669Z,28.40
2018-07-01T14:09:47.369Z,28.60
2018-07-01T14:12:16.689Z,26.30
2018-07-01T14:15:00.782Z,27.60
2018-07-01T14:17:30.187Z,29.10
2018-07-01T14:19:59.569Z,28.10
2018-07-01T14:22:28.953Z,28.60
2018-07-01T14:24:58.398Z,28.60
2018-07-01T14:27:27.744Z,28.90
2018-07-01T14:29:57.185Z,28.50
2018-07-01T14:32:26.628Z,28.70
2018-07-01T14:34:56.079Z,27.80
2018-07-01T14:37:25.509Z,29.50
2018-07-01T14:39:54.816Z,28.80
2018-07-01T14:42:24.237Z,30.10
2018-07-01T14:44:53.693Z,29.30
2018-07-01T14:47:23.051Z,29.30
2018-07-01T14:49:52.428Z,28.50
2018-07-01T14:52:21.859Z,28.10
2018-07-01T14:54:59.804Z,29.20
2018-07-01T14:57:28.921Z,28.70
2018-07-01T14:59:58.014Z,28.80
2018-07-01T15:02:27.156Z,29.10
2018-07-01T15:04:56.243Z,28.20
2018-07-01T15:07:25.347Z,27.50
2018-07-01T15:09:54.479Z,28.80
2018-07-01T15:12:23.796Z,29.40
2018-07-01T15:14:53.176Z,29.70
2018-07-01T15:17:22.579Z,29.20
2018-07-01T15:19:58.785Z,28.50
2018-07-01T15:22:28.214Z,28.80
2018-07-01T15:24:57.650Z,28.80
2018-07-01T15:27:27.230Z,28.40
2018-07-01T15:29:56.932Z,28.30
2018-07-01T15:32:26.379Z,28.30
2018-07-01T15:34:55.784Z,27.60
2018-07-01T15:37:25.090Z,28.70
2018-07-01T15:39:54.429Z,28.80
2018-07-01T15:42:23.781Z,28.20
2018-07-01T15:44:53.214Z,28.10
2018-07-01T15:47:22.702Z,28.60
2018-07-01T15:49:52.081Z,29.40
2018-07-01T15:52:21.569Z,29.20
2018-07-01T15:54:52.014Z,29.40
2018-07-01T15:57:21.356Z,28.70
2018-07-01T15:59:50.689Z,29.10
2018-07-01T16:02:20.128Z,28.90
2018-07-01T16:04:49.640Z,28.90
2018-07-01T16:07:19.407Z,28.40
2018-07-01T16:09:49.100Z,28.90
2018-07-01T16:12:18.481Z,28.80
2018-07-01T16:14:47.961Z,29.20
2018-07-01T16:17:17.345Z,28.70
2018-07-01T16:19:46.702Z,29.00
2018-07-01T16:22:16.086Z,29.70
2018-07-01T16:24:52.758Z,29.50
2018-07-01T16:27:28.113Z,29.80
2018-07-01T16:29:57.489Z,29.50
2018-07-01T16:32:26.865Z,29.40
2018-07-01T16:34:55.973Z,29.40
2018-07-01T16:37:25.106Z,29.70
2018-07-01T16:39:54.337Z,29.90
2018-07-01T16:42:23.744Z,29.80
2018-07-01T16:44:53.161Z,30.20
2018-07-01T16:47:22.524Z,30.40
2018-07-01T16:49:51.845Z,29.90
2018-07-01T16:52:21.256Z,30.00
2018-07-01T16:55:07.355Z,30.10
2018-07-01T16:57:36.593Z,30.00
2018-07-01T17:00:07.214Z,30.10
2018-07-01T17:02:36.666Z,31.30
2018-07-01T17:05:06.314Z,33.00
2018-07-01T17:10:04.858Z,34.90
2018-07-01T17:12:42.070Z,35.50
2018-07-01T17:15:11.498Z,36.40
2018-07-01T17:17:40.901Z,36.80
2018-07-01T17:20:10.282Z,38.90
2018-07-01T17:22:43.711Z,38.50
2018-07-01T17:25:13.088Z,38.10
2018-07-01T17:27:42.365Z,38.60
2018-07-01T17:30:11.823Z,38.90
2018-07-01T17:32:49.727Z,39.10
2018-07-01T17:35:19.159Z,39.00
2018-07-01T17:37:48.529Z,40.40
2018-07-01T17:40:17.889Z,40.30
2018-07-01T17:42:48.387Z,40.00
2018-07-01T17:45:17.737Z,40.30
2018-07-01T17:47:47.123Z,41.70
2018-07-01T17:50:16.472Z,41.80
2018-07-01T17:52:46.888Z,41.60
2018-07-01T17:55:16.204Z,41.60
2018-07-01T17:57:45.673Z,41.60
2018-07-01T18:00:15.066Z,41.60
2018-07-01T18:02:48.757Z,41.40
2018-07-01T18:05:18.208Z,41.60
2018-07-01T18:07:47.601Z,41.80
2018-07-01T18:10:16.933Z,41.50
2018-07-01T18:12:56.255Z,41.60
2018-07-01T18:15:25.736Z,42.30
2018-07-01T18:17:55.033Z,42.70
2018-07-01T18:20:24.451Z,42.50
2018-07-01T18:23:27.414Z,43.30
2018-07-01T18:25:24.266Z,42.80
2018-07-01T18:28:03.601Z,43.00
2018-07-01T18:30:22.991Z,43.30
2018-07-01T18:32:55.912Z,42.90
2018-07-01T18:35:26.277Z,43.00
2018-07-01T18:37:55.650Z,42.90
2018-07-01T18:40:25.013Z,44.00
2018-07-01T18:43:19.010Z,43.50
2018-07-01T18:45:48.356Z,44.50
2018-07-01T18:48:17.688Z,44.10
2018-07-01T18:50:47.072Z,44.20
2018-07-01T18:53:17.543Z,44.20
2018-07-01T18:55:46.897Z,44.20
2018-07-01T18:58:16.308Z,44.10
2018-07-01T19:00:45.678Z,43.90
2018-07-01T19:03:15.065Z,43.80
2018-07-01T19:08:13.477Z,43.70
2018-07-01T19:10:42.840Z,44.50
2018-07-01T19:13:19.713Z,44.40
2018-07-01T19:15:49.076Z,44.80
2018-07-01T19:18:18.469Z,44.70
2018-07-01T19:20:47.869Z,45.00
2018-07-01T19:23:24.729Z,44.90
2018-07-01T19:25:54.136Z,45.30
2018-07-01T19:28:23.479Z,45.30
2018-07-01T19:30:52.841Z,45.40
2018-07-01T19:33:45.421Z,45.60
2018-07-01T19:36:14.835Z,45.90
2018-07-01T19:38:44.134Z,46.10
2018-07-01T19:41:13.505Z,46.10
2018-07-01T19:43:42.958Z,46.50
2018-07-01T19:46:12.278Z,46.70
2018-07-01T19:48:41.722Z,46.80
2018-07-01T19:51:11.058Z,46.80
2018-07-01T19:53:48.252Z,47.10
2018-07-01T19:56:17.644Z,47.00
2018-07-01T19:58:47.036Z,46.80
2018-07-01T20:01:16.366Z,47.30
2018-07-01T20:03:45.789Z,47.90
2018-07-01T20:06:15.284Z,48.00
2018-07-01T20:08:44.633Z,48.20
2018-07-01T20:11:14.116Z,48.00
2018-07-01T20:13:46.925Z,48.50
2018-07-01T20:16:16.057Z,48.30
2018-07-01T20:18:45.164Z,48.70
2018-07-01T20:21:14.251Z,48.90
2018-07-01T20:23:47.290Z,48.90
2018-07-01T20:26:16.735Z,49.20
2018-07-01T20:28:46.031Z,49.40
2018-07-01T20:31:15.466Z,49.30
2018-07-01T20:33:44.808Z,49.80
2018-07-01T20:36:14.372Z,50.70
2018-07-01T20:38:43.761Z,51.10
2018-07-01T20:41:13.096Z,51.00
2018-07-01T20:43:43.526Z,51.20
2018-07-01T20:46:12.841Z,51.00
2018-07-01T20:51:11.323Z,50.90
2018-07-01T20:53:41.757Z,51.50
2018-07-01T20:58:40.208Z,51.90
2018-07-01T21:01:09.558Z,52.60
2018-07-01T21:03:57.884Z,52.50
2018-07-01T21:06:27.175Z,53.80
2018-07-01T21:08:56.504Z,54.60
2018-07-01T21:11:25.905Z,54.40
2018-07-01T21:13:56.400Z,55.10
2018-07-01T21:16:25.832Z,54.60
2018-07-01T21:18:55.237Z,55.60
2018-07-01T21:21:24.628Z,58.00
2018-07-01T21:23:54.048Z,58.50
2018-07-01T21:26:23.505Z,57.70
2018-07-01T21:28:52.877Z,56.70
2018-07-01T21:31:22.324Z,55.90
2018-07-01T21:33:55.132Z,56.30
2018-07-01T21:38:53.612Z,57.10
2018-07-01T21:41:23.012Z,57.30
2018-07-01T21:43:52.393Z,57.30
2018-07-01T21:46:21.753Z,57.10
2018-07-01T21:48:51.184Z,56.50
2018-07-01T21:51:20.469Z,57.00
2018-07-01T21:54:04.672Z,57.70
2018-07-01T21:56:34.093Z,57.10
2018-07-01T21:59:03.493Z,58.00
2018-07-01T22:01:32.882Z,59.10
2018-07-01T22:06:47.619Z,60.00
2018-07-01T22:09:17.029Z,59.40
2018-07-01T22:12:08.321Z,59.80
2018-07-01T22:15:02.157Z,60.40
2018-07-01T22:17:31.610Z,61.10
2018-07-01T22:20:01.041Z,62.40
2018-07-01T22:22:30.403Z,63.40
2018-07-01T22:24:59.800Z,64.60
2018-07-01T22:27:29.137Z,65.60
2018-07-01T22:29:58.546Z,66.60
2018-07-01T22:32:36.572Z,66.30
2018-07-01T22:35:05.973Z,67.20
2018-07-01T22:37:35.377Z,69.20
2018-07-01T22:40:05.060Z,72.00
2018-07-01T22:42:34.468Z,72.10
2018-07-01T22:45:03.908Z,75.10
2018-07-01T22:47:33.277Z,74.60
2018-07-01T22:50:02.657Z,75.00
2018-07-01T22:52:40.112Z,75.10
2018-07-01T22:55:09.494Z,76.00
2018-07-01T22:57:38.892Z,76.70
2018-07-01T23:03:29.382Z,76.80
2018-07-01T23:05:58.709Z,77.90
2018-07-01T23:08:28.109Z,79.80
2018-07-01T23:10:57.523Z,79.20
2018-07-01T23:13:27.018Z,78.70
2018-07-01T23:15:56.416Z,79.40
2018-07-01T23:18:25.869Z,82.50
2018-07-01T23:20:55.221Z,84.80
2018-07-01T23:23:26.664Z,88.70
2018-07-01T23:25:55.977Z,90.20
2018-07-01T23:28:25.317Z,91.20
2018-07-01T23:30:54.685Z,91.60
2018-07-01T23:33:26.101Z,92.30
2018-07-01T23:35:55.497Z,93.00
2018-07-01T23:38:24.972Z,95.50
2018-07-01T23:40:54.361Z,98.20
2018-07-01T23:43:23.964Z,99.90
2018-07-01T23:45:53.464Z,99.90
2018-07-01T23:48:22.788Z,99.90
2018-07-01T23:50:52.197Z,99.90
2018-07-01T23:53:22.621Z,99.90
2018-07-01T23:55:51.968Z,99.90
2018-07-01T23:58:21.221Z,99.90
